sensor_id;sensor_type;location;lat;lon;timestamp;pressure;altitude;pressure_sealevel;temperature;humidity
44531;BME280;30240;47.418;0.700;2023-05-02T00:01:53;101036.01684570312;;;11.05;83.77
44531;BME280;30240;47.418;0.700;2023-05-02T00:04:19;101034.23461914062;;;11.0;84.0
44531;BME280;30240;47.418;0.700;2023-05-02T00:06:43;101033.31298828125;;;11.06;84.04
44531;BME280;30240;47.418;0.700;2023-05-02T00:09:08;101029.20532226562;;;10.99;84.05
44531;BME280;30240;47.418;0.700;2023-05-02T00:11:33;101027.48413085938;;;10.96;84.15
44531;BME280;30240;47.418;0.700;2023-05-02T00:13:58;101027.48413085938;;;10.96;84.15
44531;BME280;30240;47.418;0.700;2023-05-02T00:16:23;101029.02221679688;;;10.96;84.25
44531;BME280;30240;47.418;0.700;2023-05-02T00:18:48;101027.392578125;;;10.91;84.34
44531;BME280;30240;47.418;0.700;2023-05-02T00:21:13;101029.57763671875;;;10.91;84.41
44531;BME280;30240;47.418;0.700;2023-05-02T00:23:38;101030.0048828125;;;10.92;84.49
44531;BME280;30240;47.418;0.700;2023-05-02T00:26:07;101030.0048828125;;;10.92;84.49
44531;BME280;30240;47.418;0.700;2023-05-02T00:28:28;101024.49951171875;;;10.88;84.46
44531;BME280;30240;47.418;0.700;2023-05-02T00:30:53;101027.53295898438;;;10.86;84.6
44531;BME280;30240;47.418;0.700;2023-05-02T00:33:18;101020.47729492188;;;10.84;84.73
44531;BME280;30240;47.418;0.700;2023-05-02T00:35:44;101021.11206054688;;;10.85;84.72
44531;BME280;30240;47.418;0.700;2023-05-02T00:38:08;101021.11206054688;;;10.85;84.72
44531;BME280;30240;47.418;0.700;2023-05-02T00:40:41;101021.15478515625;;;10.88;84.72
44531;BME280;30240;47.418;0.700;2023-05-02T00:42:59;101016.09497070312;;;10.84;84.8
44531;BME280;30240;47.418;0.700;2023-05-02T00:45:24;101017.99926757812;;;10.79;84.89
44531;BME280;30240;47.418;0.700;2023-05-02T00:47:49;101014.501953125;;;10.82;84.97
44531;BME280;30240;47.418;0.700;2023-05-02T00:50:14;101014.501953125;;;10.82;84.97
44531;BME280;30240;47.418;0.700;2023-05-02T00:52:39;101008.26416015625;;;10.82;84.86
44531;BME280;30240;47.418;0.700;2023-05-02T00:55:04;101010.58349609375;;;10.82;85.02
44531;BME280;30240;47.418;0.700;2023-05-02T00:57:28;101002.32543945312;;;10.85;85.09
44531;BME280;30240;47.418;0.700;2023-05-02T00:59:54;101001.70288085938;;;10.84;85.13
44531;BME280;30240;47.418;0.700;2023-05-02T01:02:25;101001.70288085938;;;10.84;85.13
44531;BME280;30240;47.418;0.700;2023-05-02T01:04:49;100997.5341796875;;;10.89;85.13
44531;BME280;30240;47.418;0.700;2023-05-02T01:07:24;100995.34301757812;;;10.88;85.09
44531;BME280;30240;47.418;0.700;2023-05-02T01:09:39;100999.072265625;;;10.95;84.97
44531;BME280;30240;47.418;0.700;2023-05-02T01:12:00;101001.1962890625;;;10.92;84.99
44531;BME280;30240;47.418;0.700;2023-05-02T01:14:25;101003.68041992188;;;10.95;84.95
44531;BME280;30240;47.418;0.700;2023-05-02T01:16:49;101003.68041992188;;;10.95;84.95
44531;BME280;30240;47.418;0.700;2023-05-02T01:19:18;101001.23291015625;;;10.92;84.91
44531;BME280;30240;47.418;0.700;2023-05-02T01:21:39;101002.75268554688;;;10.92;84.92
44531;BME280;30240;47.418;0.700;2023-05-02T01:24:06;101000.2197265625;;;10.86;84.9
44531;BME280;30240;47.418;0.700;2023-05-02T01:26:33;100996.98486328125;;;10.89;84.97
44531;BME280;30240;47.418;0.700;2023-05-02T01:28:56;100996.98486328125;;;10.89;84.97
44531;BME280;30240;47.418;0.700;2023-05-02T01:31:19;100992.98706054688;;;10.89;84.85
44531;BME280;30240;47.418;0.700;2023-05-02T01:33:44;100997.900390625;;;10.96;84.64
44531;BME280;30240;47.418;0.700;2023-05-02T01:36:10;100990.8447265625;;;10.99;84.49
44531;BME280;30240;47.418;0.700;2023-05-02T01:38:34;100989.453125;;;11.0;84.31
44531;BME280;30240;47.418;0.700;2023-05-02T01:40:59;100989.453125;;;11.0;84.31
44531;BME280;30240;47.418;0.700;2023-05-02T01:43:24;100990.14892578125;;;10.99;84.37
44531;BME280;30240;47.418;0.700;2023-05-02T01:45:49;100990.24047851562;;;10.92;84.5
44531;BME280;30240;47.418;0.700;2023-05-02T01:48:15;100995.37353515625;;;10.93;84.51
44531;BME280;30240;47.418;0.700;2023-05-02T01:50:40;100994.17114257812;;;10.91;84.32
44531;BME280;30240;47.418;0.700;2023-05-02T01:53:06;100994.17114257812;;;10.91;84.32
44531;BME280;30240;47.418;0.700;2023-05-02T01:55:29;100994.56176757812;;;10.91;84.49
44531;BME280;30240;47.418;0.700;2023-05-02T01:57:54;100991.02172851562;;;10.95;84.42
44531;BME280;30240;47.418;0.700;2023-05-02T02:00:20;100989.63012695312;;;10.95;84.56
44531;BME280;30240;47.418;0.700;2023-05-02T02:02:45;100989.81323242188;;;11.08;84.16
44531;BME280;30240;47.418;0.700;2023-05-02T02:05:09;100989.81323242188;;;11.08;84.16
44531;BME280;30240;47.418;0.700;2023-05-02T02:07:34;100998.98681640625;;;11.05;84.09
44531;BME280;30240;47.418;0.700;2023-05-02T02:09:59;101001.98364257812;;;10.99;84.04
44531;BME280;30240;47.418;0.700;2023-05-02T02:12:26;101004.82788085938;;;10.86;84.32
44531;BME280;30240;47.418;0.700;2023-05-02T02:14:56;101014.78881835938;;;10.82;84.67
44531;BME280;30240;47.418;0.700;2023-05-02T02:17:15;101014.78881835938;;;10.82;84.67
44531;BME280;30240;47.418;0.700;2023-05-02T02:19:39;101017.3583984375;;;10.69;84.89
44531;BME280;30240;47.418;0.700;2023-05-02T02:22:05;101016.6259765625;;;10.72;84.95
44531;BME280;30240;47.418;0.700;2023-05-02T02:24:29;101022.49755859375;;;10.56;85.33
44531;BME280;30240;47.418;0.700;2023-05-02T02:26:53;101018.29833984375;;;10.61;85.48
44531;BME280;30240;47.418;0.700;2023-05-02T02:29:18;101018.29833984375;;;10.61;85.48
44531;BME280;30240;47.418;0.700;2023-05-02T02:31:43;101021.57592773438;;;10.49;85.54
44531;BME280;30240;47.418;0.700;2023-05-02T02:34:08;101026.61743164062;;;10.43;85.7
44531;BME280;30240;47.418;0.700;2023-05-02T02:36:38;101033.06884765625;;;10.54;85.55
44531;BME280;30240;47.418;0.700;2023-05-02T02:39:03;101036.73706054688;;;10.43;85.46
44531;BME280;30240;47.418;0.700;2023-05-02T02:39:11;101036.73706054688;;;10.43;85.46
44531;BME280;30240;47.418;0.700;2023-05-02T02:39:17;101036.73706054688;;;10.43;85.46
44531;BME280;30240;47.418;0.700;2023-05-02T02:39:25;101036.73706054688;;;10.43;85.46
44531;BME280;30240;47.418;0.700;2023-05-02T02:39:33;101036.73706054688;;;10.43;85.46
44531;BME280;30240;47.418;0.700;2023-05-02T02:41:27;101039.87426757812;;;10.47;85.61
44531;BME280;30240;47.418;0.700;2023-05-02T02:43:56;101039.87426757812;;;10.47;85.61
44531;BME280;30240;47.418;0.700;2023-05-02T02:46:27;101040.91186523438;;;10.46;85.7
44531;BME280;30240;47.418;0.700;2023-05-02T02:48:42;101043.64013671875;;;10.44;85.58
44531;BME280;30240;47.418;0.700;2023-05-02T02:51:08;101048.71826171875;;;10.39;85.61
44531;BME280;30240;47.418;0.700;2023-05-02T02:53:33;101054.47387695312;;;10.37;85.54
44531;BME280;30240;47.418;0.700;2023-05-02T02:55:56;101054.47387695312;;;10.37;85.54
44531;BME280;30240;47.418;0.700;2023-05-02T02:58:24;101053.01513671875;;;10.3;85.83
44531;BME280;30240;47.418;0.700;2023-05-02T02:58:29;101053.01513671875;;;10.3;85.83
44531;BME280;30240;47.418;0.700;2023-05-02T03:00:45;101053.49731445312;;;10.34;85.77
44531;BME280;30240;47.418;0.700;2023-05-02T03:03:09;101052.8564453125;;;10.2;86.47
44531;BME280;30240;47.418;0.700;2023-05-02T03:05:34;101050.55541992188;;;10.13;86.75
44531;BME280;30240;47.418;0.700;2023-05-02T03:07:59;101050.55541992188;;;10.13;86.75
44531;BME280;30240;47.418;0.700;2023-05-02T03:10:24;101054.65087890625;;;10.19;86.93
44531;BME280;30240;47.418;0.700;2023-05-02T03:12:49;101058.1787109375;;;10.22;86.64
44531;BME280;30240;47.418;0.700;2023-05-02T03:15:21;101059.18579101562;;;10.05;86.79
44531;BME280;30240;47.418;0.700;2023-05-02T03:17:39;101059.35668945312;;;10.06;87.01
44531;BME280;30240;47.418;0.700;2023-05-02T03:20:04;101059.35668945312;;;10.06;87.01
44531;BME280;30240;47.418;0.700;2023-05-02T03:22:28;101062.31079101562;;;10.12;86.93
44531;BME280;30240;47.418;0.700;2023-05-02T03:24:53;101063.232421875;;;9.99;86.95
44531;BME280;30240;47.418;0.700;2023-05-02T03:27:19;101058.50219726562;;;9.99;86.94
44531;BME280;30240;47.418;0.700;2023-05-02T03:29:43;101053.6865234375;;;10.06;86.8
44531;BME280;30240;47.418;0.700;2023-05-02T03:32:09;101053.6865234375;;;10.06;86.8
44531;BME280;30240;47.418;0.700;2023-05-02T03:34:34;101062.57934570312;;;9.95;86.76
44531;BME280;30240;47.418;0.700;2023-05-02T03:36:59;101063.36059570312;;;9.75;87.05
44531;BME280;30240;47.418;0.700;2023-05-02T03:39:24;101070.54443359375;;;9.67;87.43
44531;BME280;30240;47.418;0.700;2023-05-02T03:41:49;101072.28393554688;;;9.69;87.48
44531;BME280;30240;47.418;0.700;2023-05-02T03:44:14;101072.28393554688;;;9.69;87.48
44531;BME280;30240;47.418;0.700;2023-05-02T03:46:39;101070.361328125;;;9.8;87.61
44531;BME280;30240;47.418;0.700;2023-05-02T03:49:03;101067.68798828125;;;9.77;87.69
44531;BME280;30240;47.418;0.700;2023-05-02T03:51:29;101064.88037109375;;;9.67;87.83
44531;BME280;30240;47.418;0.700;2023-05-02T03:53:53;101069.42138671875;;;9.51;88.13
44531;BME280;30240;47.418;0.700;2023-05-02T03:56:19;101069.42138671875;;;9.51;88.13
44531;BME280;30240;47.418;0.700;2023-05-02T03:58:44;101067.49877929688;;;9.47;88.25
44531;BME280;30240;47.418;0.700;2023-05-02T04:01:12;101067.21801757812;;;9.53;88.38
44531;BME280;30240;47.418;0.700;2023-05-02T04:03:33;101063.81225585938;;;9.61;88.14
44531;BME280;30240;47.418;0.700;2023-05-02T04:05:59;101061.9384765625;;;9.61;87.95
44531;BME280;30240;47.418;0.700;2023-05-02T04:08:24;101066.73583984375;;;9.53;88.05
44531;BME280;30240;47.418;0.700;2023-05-02T04:10:50;101066.73583984375;;;9.53;88.05
44531;BME280;30240;47.418;0.700;2023-05-02T04:13:13;101060.595703125;;;9.5;88.11
44531;BME280;30240;47.418;0.700;2023-05-02T04:15:38;101057.06176757812;;;9.49;87.95
44531;BME280;30240;47.418;0.700;2023-05-02T04:18:04;101063.26293945312;;;9.51;88.09
44531;BME280;30240;47.418;0.700;2023-05-02T04:20:29;101066.24755859375;;;9.5;87.99
44531;BME280;30240;47.418;0.700;2023-05-02T04:22:54;101066.24755859375;;;9.5;87.99
44531;BME280;30240;47.418;0.700;2023-05-02T04:25:19;101067.96875;;;9.47;87.94
44531;BME280;30240;47.418;0.700;2023-05-02T04:27:44;101069.56176757812;;;9.38;88.01
44531;BME280;30240;47.418;0.700;2023-05-02T04:30:09;101068.86596679688;;;9.33;88.26
44531;BME280;30240;47.418;0.700;2023-05-02T04:32:34;101067.61474609375;;;9.42;88.19
44531;BME280;30240;47.418;0.700;2023-05-02T04:34:59;101067.61474609375;;;9.42;88.19
44531;BME280;30240;47.418;0.700;2023-05-02T04:37:24;101071.9970703125;;;9.49;88.1
44531;BME280;30240;47.418;0.700;2023-05-02T04:39:49;101074.45068359375;;;9.49;87.92
44531;BME280;30240;47.418;0.700;2023-05-02T04:42:14;101076.7333984375;;;9.31;87.92
44531;BME280;30240;47.418;0.700;2023-05-02T04:44:39;101080.84106445312;;;9.25;88.29
44531;BME280;30240;47.418;0.700;2023-05-02T04:47:04;101080.84106445312;;;9.25;88.29
44531;BME280;30240;47.418;0.700;2023-05-02T04:49:29;101087.39013671875;;;9.26;88.6
44531;BME280;30240;47.418;0.700;2023-05-02T04:51:54;101085.91918945312;;;9.32;88.55
44531;BME280;30240;47.418;0.700;2023-05-02T04:54:18;101084.4970703125;;;9.33;88.42
44531;BME280;30240;47.418;0.700;2023-05-02T04:56:43;101088.50708007812;;;9.28;88.34
44531;BME280;30240;47.418;0.700;2023-05-02T04:59:08;101088.50708007812;;;9.28;88.34
44531;BME280;30240;47.418;0.700;2023-05-02T05:01:34;101089.3798828125;;;9.19;88.3
44531;BME280;30240;47.418;0.700;2023-05-02T05:03:59;101094.90356445312;;;9.16;88.43
44531;BME280;30240;47.418;0.700;2023-05-02T05:06:24;101099.6826171875;;;9.31;88.33
44531;BME280;30240;47.418;0.700;2023-05-02T05:08:49;101106.15844726562;;;9.29;88.12
44531;BME280;30240;47.418;0.700;2023-05-02T05:11:14;101106.15844726562;;;9.29;88.12
44531;BME280;30240;47.418;0.700;2023-05-02T05:13:39;101102.490234375;;;9.28;88.33
44531;BME280;30240;47.418;0.700;2023-05-02T05:16:04;101104.57763671875;;;9.38;88.31
44531;BME280;30240;47.418;0.700;2023-05-02T05:18:29;101107.17163085938;;;9.47;87.98
44531;BME280;30240;47.418;0.700;2023-05-02T05:20:53;101115.09399414062;;;9.42;88.13
44531;BME280;30240;47.418;0.700;2023-05-02T05:23:19;101115.09399414062;;;9.42;88.13
44531;BME280;30240;47.418;0.700;2023-05-02T05:25:44;101124.18823242188;;;9.44;88.33
44531;BME280;30240;47.418;0.700;2023-05-02T05:28:08;101127.8564453125;;;9.42;88.51
44531;BME280;30240;47.418;0.700;2023-05-02T05:30:33;101128.59497070312;;;9.51;88.73
44531;BME280;30240;47.418;0.700;2023-05-02T05:32:59;101127.26440429688;;;9.54;88.38
44531;BME280;30240;47.418;0.700;2023-05-02T05:35:25;101127.26440429688;;;9.54;88.38
44531;BME280;30240;47.418;0.700;2023-05-02T05:37:49;101126.53198242188;;;9.73;88.23
44531;BME280;30240;47.418;0.700;2023-05-02T05:40:14;101124.462890625;;;9.63;87.55
44531;BME280;30240;47.418;0.700;2023-05-02T05:42:39;101131.28051757812;;;9.7;87.45
44531;BME280;30240;47.418;0.700;2023-05-02T05:45:04;101136.0595703125;;;9.74;87.62
44531;BME280;30240;47.418;0.700;2023-05-02T05:47:28;101134.1064453125;;;9.64;87.68
44531;BME280;30240;47.418;0.700;2023-05-02T05:49:54;101134.1064453125;;;9.64;87.68
44531;BME280;30240;47.418;0.700;2023-05-02T05:52:19;101131.85424804688;;;9.73;88.09
44531;BME280;30240;47.418;0.700;2023-05-02T05:54:43;101143.4814453125;;;9.74;88.05
44531;BME280;30240;47.418;0.700;2023-05-02T05:57:08;101136.23657226562;;;9.99;87.68
44531;BME280;30240;47.418;0.700;2023-05-02T05:59:34;101136.96899414062;;;9.97;87.19
44531;BME280;30240;47.418;0.700;2023-05-02T06:01:58;101136.96899414062;;;9.97;87.19
44531;BME280;30240;47.418;0.700;2023-05-02T06:04:23;101140.37475585938;;;10.15;87.12
44531;BME280;30240;47.418;0.700;2023-05-02T06:06:49;101138.05541992188;;;10.25;86.86
44531;BME280;30240;47.418;0.700;2023-05-02T06:09:14;101145.751953125;;;10.26;86.83
44531;BME280;30240;47.418;0.700;2023-05-02T06:11:38;101140.31982421875;;;10.3;86.61
44531;BME280;30240;47.418;0.700;2023-05-02T06:14:04;101140.31982421875;;;10.3;86.61
44531;BME280;30240;47.418;0.700;2023-05-02T06:16:29;101138.18969726562;;;10.43;86.52
44531;BME280;30240;47.418;0.700;2023-05-02T06:18:54;101141.0888671875;;;10.56;85.97
44531;BME280;30240;47.418;0.700;2023-05-02T06:21:19;101137.82958984375;;;10.53;86.1
44531;BME280;30240;47.418;0.700;2023-05-02T06:23:44;101140.3564453125;;;10.86;85.82
44531;BME280;30240;47.418;0.700;2023-05-02T06:26:08;101140.3564453125;;;10.86;85.82
44531;BME280;30240;47.418;0.700;2023-05-02T06:28:33;101138.1591796875;;;10.81;85.63
44531;BME280;30240;47.418;0.700;2023-05-02T06:30:59;101135.96801757812;;;11.0;85.33
44531;BME280;30240;47.418;0.700;2023-05-02T06:33:24;101133.67309570312;;;11.26;84.66
44531;BME280;30240;47.418;0.700;2023-05-02T06:35:50;101128.20434570312;;;11.33;84.37
44531;BME280;30240;47.418;0.700;2023-05-02T06:38:13;101128.20434570312;;;11.33;84.37
44531;BME280;30240;47.418;0.700;2023-05-02T06:40:38;101119.34204101562;;;11.33;84.44
44531;BME280;30240;47.418;0.700;2023-05-02T06:43:03;101124.31030273438;;;11.62;84.23
44531;BME280;30240;47.418;0.700;2023-05-02T06:45:29;101117.47436523438;;;11.92;83.57
44531;BME280;30240;47.418;0.700;2023-05-02T06:47:53;101120.751953125;;;12.17;83.24
44531;BME280;30240;47.418;0.700;2023-05-02T06:50:19;101120.751953125;;;12.17;83.24
44531;BME280;30240;47.418;0.700;2023-05-02T06:52:44;101121.93603515625;;;12.27;82.52
44531;BME280;30240;47.418;0.700;2023-05-02T06:55:08;101121.83837890625;;;12.34;82.71
44531;BME280;30240;47.418;0.700;2023-05-02T06:57:33;101129.1748046875;;;12.66;82.16
44531;BME280;30240;47.418;0.700;2023-05-02T06:59:58;101124.8779296875;;;12.87;82.21
44531;BME280;30240;47.418;0.700;2023-05-02T07:02:24;101124.8779296875;;;12.87;82.21
44531;BME280;30240;47.418;0.700;2023-05-02T07:04:48;101121.40502929688;;;12.68;82.07
44531;BME280;30240;47.418;0.700;2023-05-02T07:07:14;101115.14892578125;;;12.84;82.12
44531;BME280;30240;47.418;0.700;2023-05-02T07:09:38;101117.16918945312;;;12.92;81.93
44531;BME280;30240;47.418;0.700;2023-05-02T07:12:04;101123.88916015625;;;13.45;80.97
44531;BME280;30240;47.418;0.700;2023-05-02T07:14:28;101124.71923828125;;;13.6;80.58
44531;BME280;30240;47.418;0.700;2023-05-02T07:16:54;101124.71923828125;;;13.6;80.58
44531;BME280;30240;47.418;0.700;2023-05-02T07:19:18;101121.51489257812;;;13.7;79.76
44531;BME280;30240;47.418;0.700;2023-05-02T07:21:43;101124.0234375;;;13.65;80.09
44531;BME280;30240;47.418;0.700;2023-05-02T07:24:09;101125.78735351562;;;13.87;79.67
44531;BME280;30240;47.418;0.700;2023-05-02T07:26:33;101126.23291015625;;;13.88;79.66
44531;BME280;30240;47.418;0.700;2023-05-02T07:28:59;101126.23291015625;;;13.88;79.66
44531;BME280;30240;47.418;0.700;2023-05-02T07:31:23;101126.72119140625;;;13.95;80.21
44531;BME280;30240;47.418;0.700;2023-05-02T07:33:48;101123.095703125;;;14.29;79.37
44531;BME280;30240;47.418;0.700;2023-05-02T07:36:13;101120.17211914062;;;14.53;78.46
44531;BME280;30240;47.418;0.700;2023-05-02T07:38:38;101126.28784179688;;;14.63;78.32
44531;BME280;30240;47.418;0.700;2023-05-02T07:41:04;101126.28784179688;;;14.63;78.32
44531;BME280;30240;47.418;0.700;2023-05-02T07:43:28;101121.92993164062;;;14.96;77.99
44531;BME280;30240;47.418;0.700;2023-05-02T07:45:54;101126.70288085938;;;15.46;76.01
44531;BME280;30240;47.418;0.700;2023-05-02T07:48:18;101130.79833984375;;;15.4;76.36
44531;BME280;30240;47.418;0.700;2023-05-02T07:50:43;101134.56420898438;;;15.57;75.76
44531;BME280;30240;47.418;0.700;2023-05-02T07:53:09;101134.56420898438;;;15.57;75.76
44531;BME280;30240;47.418;0.700;2023-05-02T07:55:33;101136.4501953125;;;15.47;77.16
44531;BME280;30240;47.418;0.700;2023-05-02T07:57:58;101129.8583984375;;;16.01;75.72
44531;BME280;30240;47.418;0.700;2023-05-02T08:00:23;101128.18603515625;;;15.74;75.62
44531;BME280;30240;47.418;0.700;2023-05-02T08:02:49;101126.31225585938;;;16.19;74.56
44531;BME280;30240;47.418;0.700;2023-05-02T08:05:14;101126.31225585938;;;16.19;74.56
44531;BME280;30240;47.418;0.700;2023-05-02T08:07:38;101125.06103515625;;;16.03;75.48
44531;BME280;30240;47.418;0.700;2023-05-02T08:10:04;101127.28271484375;;;16.61;73.8
44531;BME280;30240;47.418;0.700;2023-05-02T08:12:28;101124.609375;;;16.82;72.86
44531;BME280;30240;47.418;0.700;2023-05-02T08:14:53;101117.96875;;;16.94;72.97
44531;BME280;30240;47.418;0.700;2023-05-02T08:17:19;101117.96875;;;16.94;72.97
44531;BME280;30240;47.418;0.700;2023-05-02T08:19:43;101108.26416015625;;;17.3;72.06
44531;BME280;30240;47.418;0.700;2023-05-02T08:22:08;101111.328125;;;17.44;71.16
44531;BME280;30240;47.418;0.700;2023-05-02T08:24:33;101115.72875976562;;;17.75;70.27
44531;BME280;30240;47.418;0.700;2023-05-02T08:26:59;101117.59643554688;;;18.04;68.95
44531;BME280;30240;47.418;0.700;2023-05-02T08:29:23;101117.59643554688;;;18.04;68.95
44531;BME280;30240;47.418;0.700;2023-05-02T08:31:49;101111.71875;;;18.15;67.81
44531;BME280;30240;47.418;0.700;2023-05-02T08:34:13;101109.29565429688;;;17.68;69.26
44531;BME280;30240;47.418;0.700;2023-05-02T08:36:39;101113.92822265625;;;18.15;67.81
44531;BME280;30240;47.418;0.700;2023-05-02T08:39:04;101117.41943359375;;;18.64;66.95
44531;BME280;30240;47.418;0.700;2023-05-02T08:41:29;101117.41943359375;;;18.64;66.95
44531;BME280;30240;47.418;0.700;2023-05-02T08:43:55;101117.05322265625;;;19.21;65.4
44531;BME280;30240;47.418;0.700;2023-05-02T08:46:21;101120.1904296875;;;19.64;63.63
44531;BME280;30240;47.418;0.700;2023-05-02T08:48:44;101118.51806640625;;;19.46;64.98
44531;BME280;30240;47.418;0.700;2023-05-02T08:51:10;101127.33764648438;;;19.08;65.58
44531;BME280;30240;47.418;0.700;2023-05-02T08:53:35;101124.10888671875;;;19.22;64.11
44531;BME280;30240;47.418;0.700;2023-05-02T08:55:58;101124.10888671875;;;19.22;64.11
44531;BME280;30240;47.418;0.700;2023-05-02T08:58:23;101123.66943359375;;;19.35;63.97
44531;BME280;30240;47.418;0.700;2023-05-02T09:00:49;101121.923828125;;;20.63;60.0
44531;BME280;30240;47.418;0.700;2023-05-02T09:03:19;101120.67260742188;;;20.33;61.76
44531;BME280;30240;47.418;0.700;2023-05-02T09:05:40;101121.484375;;;19.11;65.1
44531;BME280;30240;47.418;0.700;2023-05-02T09:08:03;101121.484375;;;19.11;65.1
44531;BME280;30240;47.418;0.700;2023-05-02T09:10:29;101136.99951171875;;;19.32;63.52
44531;BME280;30240;47.418;0.700;2023-05-02T09:12:53;101135.40649414062;;;20.33;61.16
44531;BME280;30240;47.418;0.700;2023-05-02T09:15:19;101137.29858398438;;;20.94;59.21
44531;BME280;30240;47.418;0.700;2023-05-02T09:17:45;101134.06372070312;;;20.98;57.5
44531;BME280;30240;47.418;0.700;2023-05-02T09:20:09;101134.06372070312;;;20.98;57.5
44531;BME280;30240;47.418;0.700;2023-05-02T09:22:34;101136.66381835938;;;21.02;58.49
44531;BME280;30240;47.418;0.700;2023-05-02T09:24:59;101143.017578125;;;22.3;55.09
44531;BME280;30240;47.418;0.700;2023-05-02T09:27:23;101144.580078125;;;21.29;56.51
44531;BME280;30240;47.418;0.700;2023-05-02T09:29:48;101141.0400390625;;;21.3;57.59
44531;BME280;30240;47.418;0.700;2023-05-02T09:32:13;101141.0400390625;;;21.3;57.59
44531;BME280;30240;47.418;0.700;2023-05-02T09:34:38;101140.95458984375;;;20.94;59.14
44531;BME280;30240;47.418;0.700;2023-05-02T09:37:04;101136.99340820312;;;21.26;57.94
44531;BME280;30240;47.418;0.700;2023-05-02T09:39:29;101136.46850585938;;;22.16;55.25
44531;BME280;30240;47.418;0.700;2023-05-02T09:41:54;101142.4560546875;;;20.94;58.62
44531;BME280;30240;47.418;0.700;2023-05-02T09:44:20;101142.4560546875;;;20.94;58.62
44531;BME280;30240;47.418;0.700;2023-05-02T09:46:45;101152.3193359375;;;19.23;62.4
44531;BME280;30240;47.418;0.700;2023-05-02T09:49:09;101150.76293945312;;;20.98;57.8
44531;BME280;30240;47.418;0.700;2023-05-02T09:51:34;101148.34594726562;;;21.02;58.16
44531;BME280;30240;47.418;0.700;2023-05-02T09:53:58;101145.34912109375;;;22.31;56.47
44531;BME280;30240;47.418;0.700;2023-05-02T09:56:24;101145.34912109375;;;22.31;56.47
44531;BME280;30240;47.418;0.700;2023-05-02T09:58:48;101140.4541015625;;;21.31;57.64
44531;BME280;30240;47.418;0.700;2023-05-02T10:01:14;101134.67407226562;;;22.03;55.71
44531;BME280;30240;47.418;0.700;2023-05-02T10:03:40;101139.19677734375;;;22.36;54.21
44531;BME280;30240;47.418;0.700;2023-05-02T10:06:05;101133.984375;;;22.51;54.47
44531;BME280;30240;47.418;0.700;2023-05-02T10:08:29;101133.984375;;;22.51;54.47
44531;BME280;30240;47.418;0.700;2023-05-02T10:10:55;101132.58056640625;;;23.24;50.76
44531;BME280;30240;47.418;0.700;2023-05-02T10:13:19;101130.94482421875;;;21.83;53.69
44531;BME280;30240;47.418;0.700;2023-05-02T10:15:45;101124.54833984375;;;23.14;51.21
44531;BME280;30240;47.418;0.700;2023-05-02T10:18:11;101127.84423828125;;;23.04;52.54
44531;BME280;30240;47.418;0.700;2023-05-02T10:20:34;101116.22924804688;;;22.45;53.29
44531;BME280;30240;47.418;0.700;2023-05-02T10:22:59;101116.22924804688;;;22.45;53.29
44531;BME280;30240;47.418;0.700;2023-05-02T10:25:24;101116.34521484375;;;22.97;51.83
44531;BME280;30240;47.418;0.700;2023-05-02T10:27:49;101113.76342773438;;;22.72;52.12
44531;BME280;30240;47.418;0.700;2023-05-02T10:30:14;101122.95532226562;;;20.63;57.89
44531;BME280;30240;47.418;0.700;2023-05-02T10:32:39;101133.4228515625;;;20.79;58.35
44531;BME280;30240;47.418;0.700;2023-05-02T10:35:05;101133.4228515625;;;20.79;58.35
44531;BME280;30240;47.418;0.700;2023-05-02T10:37:30;101130.05981445312;;;21.53;56.04
44531;BME280;30240;47.418;0.700;2023-05-02T10:39:54;101133.23974609375;;;19.92;57.63
44531;BME280;30240;47.418;0.700;2023-05-02T10:42:19;101132.470703125;;;21.79;55.37
44531;BME280;30240;47.418;0.700;2023-05-02T10:44:44;101132.84912109375;;;21.82;55.32
44531;BME280;30240;47.418;0.700;2023-05-02T10:47:19;101132.84912109375;;;21.82;55.32
44531;BME280;30240;47.418;0.700;2023-05-02T10:49:52;101135.84594726562;;;20.95;57.73
44531;BME280;30240;47.418;0.700;2023-05-02T10:52:24;101109.73510742188;;;22.96;52.56
44531;BME280;30240;47.418;0.700;2023-05-02T10:54:24;101105.93872070312;;;23.15;50.76
44531;BME280;30240;47.418;0.700;2023-05-02T10:57:00;101119.05517578125;;;21.06;56.09
44531;BME280;30240;47.418;0.700;2023-05-02T10:59:26;101119.05517578125;;;21.06;56.09
44531;BME280;30240;47.418;0.700;2023-05-02T11:01:40;101108.89282226562;;;22.85;52.54
44531;BME280;30240;47.418;0.700;2023-05-02T11:04:06;101099.44458007812;;;23.76;50.19
44531;BME280;30240;47.418;0.700;2023-05-02T11:06:30;101098.18115234375;;;22.34;52.4
44531;BME280;30240;47.418;0.700;2023-05-02T11:09:32;101091.90673828125;;;20.88;55.45
44531;BME280;30240;47.418;0.700;2023-05-02T11:11:38;101091.90673828125;;;20.88;55.45
44531;BME280;30240;47.418;0.700;2023-05-02T11:13:47;101088.87329101562;;;22.52;53.62